createdAt,value
2022-09-12T00:00:23.170Z,77.61
2022-09-12T00:02:53.852Z,78.11
2022-09-12T00:05:20.851Z,78.81
2022-09-12T00:07:47.365Z,79.09
2022-09-12T00:10:14.231Z,79.51
2022-09-12T00:12:41.076Z,79.34
2022-09-12T00:15:08.072Z,79.78
2022-09-12T00:17:35.366Z,80.07
2022-09-12T00:20:02.109Z,80.10
2022-09-12T00:22:28.503Z,79.92
2022-09-12T00:24:54.886Z,80.44
2022-09-12T00:27:21.302Z,80.59
2022-09-12T00:29:47.734Z,80.63
2022-09-12T00:32:14.176Z,80.13
2022-09-12T00:34:40.643Z,80.11
2022-09-12T00:37:07.076Z,80.25
2022-09-12T00:39:33.513Z,80.73
2022-09-12T00:41:59.945Z,80.25
2022-09-12T00:44:26.283Z,80.08
2022-09-12T00:46:52.645Z,80.28
2022-09-12T00:49:28.363Z,80.15
2022-09-12T00:52:01.640Z,80.21
2022-09-12T00:54:31.169Z,80.40
2022-09-12T00:57:00.320Z,79.81
2022-09-12T00:59:32.430Z,80.17
2022-09-12T01:01:58.937Z,80.82
2022-09-12T01:04:26.693Z,81.29
2022-09-12T01:06:54.267Z,82.06
2022-09-12T01:09:22.535Z,81.66
2022-09-12T01:11:50.051Z,81.74
2022-09-12T01:14:17.500Z,82.23
2022-09-12T01:16:45.224Z,81.95
2022-09-12T01:19:24.319Z,82.00
2022-09-12T01:22:09.595Z,81.20
2022-09-12T01:24:39.143Z,81.59
2022-09-12T01:27:16.658Z,81.83
2022-09-12T01:29:52.461Z,82.47
2022-09-12T01:32:29.587Z,82.64
2022-09-12T01:35:02.578Z,82.97
2022-09-12T01:37:38.336Z,83.15
2022-09-12T01:40:04.930Z,83.32
2022-09-12T01:42:35.061Z,83.19
2022-09-12T01:45:06.616Z,82.90
2022-09-12T01:47:46.006Z,82.84
2022-09-12T01:50:22.119Z,82.79
2022-09-12T01:53:06.905Z,82.81
2022-09-12T01:55:33.319Z,82.72
2022-09-12T01:58:17.716Z,83.18
2022-09-12T02:01:04.404Z,83.67
2022-09-12T02:03:33.867Z,83.76
2022-09-12T02:06:03.743Z,84.29
2022-09-12T02:08:45.311Z,84.18
2022-09-12T02:11:12.398Z,84.47
2022-09-12T02:13:49.825Z,84.47
2022-09-12T02:16:22.416Z,83.99
2022-09-12T02:18:53.211Z,84.28
2022-09-12T02:21:21.196Z,84.54
2022-09-12T02:23:50.792Z,84.28
2022-09-12T02:26:23.517Z,84.33
2022-09-12T02:28:50.581Z,84.59
2022-09-12T02:31:37.229Z,84.50
2022-09-12T02:34:09.875Z,85.46
2022-09-12T02:36:36.357Z,85.39
2022-09-12T02:39:02.904Z,85.37
2022-09-12T02:41:29.355Z,85.36
2022-09-12T02:43:55.883Z,84.83
2022-09-12T02:46:25.707Z,85.52
2022-09-12T02:48:52.153Z,85.33
2022-09-12T02:51:23.368Z,85.58
2022-09-12T02:53:50.306Z,85.33
2022-09-12T02:56:23.694Z,84.70
2022-09-12T02:58:50.290Z,85.21
2022-09-12T03:01:22.826Z,85.68
2022-09-12T03:03:55.140Z,85.35
2022-09-12T03:06:27.482Z,85.96
2022-09-12T03:09:00.475Z,85.71
2022-09-12T03:11:50.078Z,85.92
2022-09-12T03:14:30.167Z,85.25
2022-09-12T03:17:26.086Z,86.40
2022-09-12T03:20:01.822Z,86.05
2022-09-12T03:22:34.027Z,86.37
2022-09-12T03:25:00.386Z,87.31
2022-09-12T03:27:33.218Z,88.09
2022-09-12T03:30:00.246Z,87.98
2022-09-12T03:32:45.254Z,88.17
2022-09-12T03:35:12.576Z,88.47
2022-09-12T03:37:39.035Z,88.09
2022-09-12T03:40:06.340Z,89.44
2022-09-12T03:42:32.927Z,89.65
2022-09-12T03:44:59.398Z,90.00
2022-09-12T03:47:25.844Z,90.06
2022-09-12T03:49:55.155Z,89.50
2022-09-12T03:52:21.595Z,89.35
2022-09-12T03:54:48.039Z,89.66
2022-09-12T03:57:14.475Z,89.00
2022-09-12T03:59:40.866Z,88.12
2022-09-12T04:02:07.336Z,87.43
2022-09-12T04:04:33.931Z,87.01
2022-09-12T04:07:00.326Z,86.58
2022-09-12T04:09:26.883Z,86.51
2022-09-12T04:11:53.295Z,86.39
2022-09-12T04:14:19.682Z,86.12
2022-09-12T04:16:46.210Z,86.20
2022-09-12T04:19:12.627Z,86.73
2022-09-12T04:21:40.051Z,86.30
2022-09-12T04:24:06.522Z,86.85
2022-09-12T04:26:33.018Z,86.40
2022-09-12T04:28:59.422Z,85.66
2022-09-12T04:31:26.196Z,85.41
2022-09-12T04:33:56.742Z,85.87
2022-09-12T04:36:23.933Z,85.64
2022-09-12T04:38:50.826Z,85.44
2022-09-12T04:41:22.014Z,86.20
2022-09-12T04:43:51.773Z,86.33
2022-09-12T04:46:21.470Z,86.84
2022-09-12T04:48:49.258Z,86.79
2022-09-12T04:51:22.431Z,87.11
2022-09-12T04:53:50.064Z,86.98
2022-09-12T04:56:16.991Z,87.07
2022-09-12T04:58:43.810Z,86.34
2022-09-12T05:01:11.963Z,85.75
2022-09-12T05:03:43.410Z,86.04
2022-09-12T05:06:11.448Z,85.56
2022-09-12T05:08:38.691Z,85.79
2022-09-12T05:11:06.964Z,85.54
2022-09-12T05:13:34.084Z,86.19
2022-09-12T05:16:01.319Z,85.94
2022-09-12T05:18:28.343Z,85.37
2022-09-12T05:20:55.007Z,85.39
2022-09-12T05:23:22.161Z,85.58
2022-09-12T05:25:50.013Z,85.00
2022-09-12T05:28:16.478Z,85.29
2022-09-12T05:30:42.977Z,83.99
2022-09-12T05:33:09.428Z,84.54
2022-09-12T05:35:38.040Z,83.81
2022-09-12T05:38:04.865Z,83.14
2022-09-12T05:40:31.228Z,82.50
2022-09-12T05:42:57.727Z,81.95
2022-09-12T05:45:24.143Z,80.02
2022-09-12T05:47:50.556Z,77.51
2022-09-12T05:50:16.959Z,75.60
2022-09-12T05:52:43.335Z,73.84
2022-09-12T05:55:09.818Z,72.38
2022-09-12T05:57:36.413Z,70.95
2022-09-12T06:00:04.135Z,69.32
2022-09-12T06:02:30.585Z,67.99
2022-09-12T06:04:57.062Z,66.17
2022-09-12T06:07:23.469Z,65.18
2022-09-12T06:09:50.025Z,63.47
2022-09-12T06:12:16.418Z,63.37
2022-09-12T06:14:43.445Z,62.03
2022-09-12T06:17:09.783Z,61.51
2022-09-12T06:19:36.232Z,61.87
2022-09-12T06:22:02.677Z,61.86
2022-09-12T06:24:29.117Z,61.20
2022-09-12T06:26:55.613Z,60.26
2022-09-12T06:29:22.044Z,60.33
2022-09-12T06:31:48.476Z,59.32
2022-09-12T06:34:15.687Z,58.40
2022-09-12T06:36:43.622Z,59.55
2022-09-12T06:39:11.337Z,55.88
2022-09-12T06:41:41.673Z,59.17
2022-09-12T06:44:16.082Z,56.82
2022-09-12T06:46:42.968Z,57.93
2022-09-12T06:49:09.411Z,53.03
2022-09-12T06:51:38.882Z,52.18
2022-09-12T06:54:05.497Z,52.53
2022-09-12T06:56:31.994Z,48.04
2022-09-12T06:58:59.357Z,53.79
2022-09-12T07:01:30.223Z,53.32
2022-09-12T07:03:57.770Z,50.04
2022-09-12T07:06:26.199Z,48.63
2022-09-12T07:08:52.551Z,53.24
2022-09-12T07:11:20.535Z,47.12
2022-09-12T07:13:48.307Z,47.57
2022-09-12T07:16:19.205Z,48.01
2022-09-12T07:18:50.620Z,49.28
2022-09-12T07:21:17.085Z,50.50
2022-09-12T07:23:43.861Z,50.60
2022-09-12T07:26:11.222Z,44.32
2022-09-12T07:28:37.747Z,44.77
2022-09-12T07:31:08.151Z,49.17
2022-09-12T07:33:35.042Z,46.30
2022-09-12T07:36:03.604Z,49.48
2022-09-12T07:38:30.406Z,45.55
2022-09-12T07:40:57.235Z,45.51
2022-09-12T07:43:23.724Z,45.25
2022-09-12T07:45:54.713Z,44.08
2022-09-12T07:48:21.155Z,44.65
2022-09-12T07:50:47.840Z,46.29
2022-09-12T07:53:14.245Z,42.88
2022-09-12T07:55:40.704Z,42.70
2022-09-12T07:58:07.121Z,47.10
2022-09-12T08:00:35.971Z,47.85
2022-09-12T08:03:05.942Z,51.92
2022-09-12T08:05:32.358Z,51.12
2022-09-12T08:07:58.797Z,50.87
2022-09-12T08:10:25.211Z,49.94
2022-09-12T08:12:51.625Z,49.15
2022-09-12T08:15:17.997Z,44.71
2022-09-12T08:17:44.736Z,44.14
2022-09-12T08:20:12.192Z,41.06
2022-09-12T08:22:39.873Z,41.28
2022-09-12T08:25:06.672Z,39.78
2022-09-12T08:27:33.082Z,39.77
2022-09-12T08:29:59.578Z,37.33
2022-09-12T08:32:26.257Z,39.25
2022-09-12T08:34:52.757Z,42.90
2022-09-12T08:37:19.188Z,42.32
2022-09-12T08:39:45.842Z,43.61
2022-09-12T08:42:20.262Z,42.13
2022-09-12T08:45:05.532Z,43.75
2022-09-12T08:47:40.146Z,45.73
2022-09-12T08:50:09.769Z,42.62
2022-09-12T08:52:39.355Z,42.32
2022-09-12T08:55:06.830Z,39.54
2022-09-12T08:57:33.604Z,40.58
2022-09-12T09:00:02.434Z,40.26
2022-09-12T09:02:28.969Z,38.72
2022-09-12T09:05:12.235Z,41.20
2022-09-12T09:07:58.189Z,38.03
2022-09-12T09:10:32.742Z,39.13
2022-09-12T09:13:03.668Z,41.61
2022-09-12T09:15:45.647Z,43.06
2022-09-12T09:18:16.677Z,41.98
2022-09-12T09:20:47.406Z,40.93
2022-09-12T09:23:37.566Z,39.62
2022-09-12T09:26:14.745Z,38.83
2022-09-12T09:28:51.696Z,39.45
2022-09-12T09:31:22.847Z,40.18
2022-09-12T09:33:51.076Z,37.13
2022-09-12T09:36:44.045Z,37.22
2022-09-12T09:39:16.552Z,37.14
2022-09-12T09:42:02.667Z,35.69
2022-09-12T09:44:30.122Z,36.25
2022-09-12T09:46:58.193Z,38.34
2022-09-12T09:49:27.004Z,37.53
2022-09-12T09:51:56.580Z,36.29
2022-09-12T09:54:28.167Z,37.80
2022-09-12T09:56:55.996Z,35.03
2022-09-12T09:59:27.025Z,38.28
2022-09-12T10:01:57.871Z,35.95
2022-09-12T10:04:25.965Z,34.61
2022-09-12T10:06:54.367Z,38.12
2022-09-12T10:09:25.309Z,37.62
2022-09-12T10:11:52.568Z,35.67
2022-09-12T10:14:27.771Z,34.63
2022-09-12T10:16:54.178Z,33.35
2022-09-12T10:19:22.563Z,35.43
2022-09-12T10:21:51.559Z,35.63
2022-09-12T10:24:30.728Z,37.10
2022-09-12T10:27:05.797Z,34.32
2022-09-12T10:29:33.544Z,36.32
2022-09-12T10:32:02.221Z,37.40
2022-09-12T10:34:37.105Z,35.57
2022-09-12T10:37:15.563Z,36.19
2022-09-12T10:39:49.625Z,35.50
2022-09-12T10:42:20.356Z,36.53
2022-09-12T10:44:55.622Z,37.04
2022-09-12T10:47:24.283Z,39.38
2022-09-12T10:49:51.084Z,38.93
2022-09-12T10:52:17.626Z,41.62
2022-09-12T10:54:44.059Z,43.85
2022-09-12T10:57:14.197Z,41.21
2022-09-12T10:59:46.429Z,42.76
2022-09-12T11:02:12.813Z,42.28
2022-09-12T11:04:39.215Z,43.05
2022-09-12T11:07:05.638Z,42.28
2022-09-12T11:09:35.824Z,41.41
2022-09-12T11:12:08.196Z,41.10
2022-09-12T11:14:55.636Z,41.31
2022-09-12T11:17:41.976Z,41.62
2022-09-12T11:20:20.018Z,41.29
2022-09-12T11:22:49.216Z,41.46
2022-09-12T11:25:35.200Z,41.35
2022-09-12T11:28:14.949Z,40.65
2022-09-12T11:31:02.255Z,41.35
2022-09-12T11:33:42.675Z,42.02
2022-09-12T11:36:21.471Z,43.53
2022-09-12T11:38:52.549Z,41.08
2022-09-12T11:41:33.792Z,40.34
2022-09-12T11:44:18.654Z,43.31
2022-09-12T11:46:49.814Z,42.47
2022-09-12T11:49:21.370Z,40.84
2022-09-12T11:51:54.080Z,43.41
2022-09-12T11:54:23.306Z,43.89
2022-09-12T11:56:53.379Z,41.75
2022-09-12T11:59:32.589Z,41.58
2022-09-12T12:02:02.473Z,42.54
2022-09-12T12:04:36.558Z,43.91
2022-09-12T12:07:07.799Z,42.32
2022-09-12T12:09:34.511Z,42.38
2022-09-12T12:12:04.776Z,41.91
2022-09-12T12:14:45.445Z,43.64
2022-09-12T12:17:22.668Z,43.69
2022-09-12T12:20:02.296Z,42.18
2022-09-12T12:22:31.472Z,41.91
2022-09-12T12:25:00.970Z,42.40
2022-09-12T12:27:46.000Z,43.80
2022-09-12T12:30:30.944Z,40.51
2022-09-12T12:33:13.316Z,39.64
2022-09-12T12:35:40.637Z,39.07
2022-09-12T12:38:25.529Z,39.61
2022-09-12T12:40:51.998Z,39.36
2022-09-12T12:43:31.611Z,41.18
2022-09-12T12:46:02.796Z,39.26
2022-09-12T12:48:31.314Z,39.73
2022-09-12T12:51:36.371Z,39.87
2022-09-12T12:54:04.852Z,38.67
2022-09-12T12:56:42.364Z,38.17
2022-09-12T12:59:17.259Z,38.58
2022-09-12T13:01:55.415Z,39.06
2022-09-12T13:04:24.907Z,38.07
2022-09-12T13:07:01.086Z,39.15
2022-09-12T13:09:36.399Z,39.33
2022-09-12T13:12:08.549Z,36.85
2022-09-12T13:14:34.986Z,38.98
2022-09-12T13:17:04.698Z,38.52
2022-09-12T13:19:33.154Z,37.41
2022-09-12T13:22:04.127Z,39.59
2022-09-12T13:24:31.064Z,39.27
2022-09-12T13:26:57.971Z,39.78
2022-09-12T13:29:25.242Z,38.78
2022-09-12T13:31:54.465Z,38.97
2022-09-12T13:34:22.858Z,39.81
2022-09-12T13:36:49.392Z,39.88
2022-09-12T13:39:19.120Z,37.52
2022-09-12T13:42:04.447Z,38.25
2022-09-12T13:44:35.583Z,36.05
2022-09-12T13:47:03.573Z,37.46
2022-09-12T13:49:38.570Z,37.80
2022-09-12T13:52:07.278Z,39.47
2022-09-12T13:54:35.655Z,37.85
2022-09-12T13:57:02.037Z,38.27
2022-09-12T13:59:28.477Z,37.50
2022-09-12T14:01:54.938Z,37.78
2022-09-12T14:04:41.092Z,38.57
2022-09-12T14:07:15.362Z,38.95
2022-09-12T14:09:43.873Z,38.60
2022-09-12T14:12:18.243Z,37.60
2022-09-12T14:14:47.932Z,37.19
2022-09-12T14:17:23.012Z,39.05
2022-09-12T14:19:50.805Z,40.31
2022-09-12T14:22:20.268Z,40.22
2022-09-12T14:24:51.738Z,40.82
2022-09-12T14:27:24.617Z,39.89
2022-09-12T14:29:54.323Z,39.35
2022-09-12T14:32:24.522Z,39.02
2022-09-12T14:35:09.828Z,40.27
2022-09-12T14:37:36.403Z,39.45
2022-09-12T14:40:05.113Z,39.39
2022-09-12T14:42:32.172Z,39.35
2022-09-12T14:45:03.009Z,40.28
2022-09-12T14:47:37.119Z,39.74
2022-09-12T14:50:04.844Z,39.00
2022-09-12T14:52:34.767Z,39.58
2022-09-12T14:55:02.426Z,38.78
2022-09-12T14:57:39.783Z,38.59
2022-09-12T15:00:12.132Z,39.19
2022-09-12T15:02:38.905Z,38.84
2022-09-12T15:05:08.580Z,38.73
2022-09-12T15:07:35.003Z,38.70
2022-09-12T15:10:03.023Z,39.49
2022-09-12T15:12:29.450Z,40.09
2022-09-12T15:15:15.507Z,40.47
2022-09-12T15:17:42.146Z,40.79
2022-09-12T15:20:08.860Z,39.63
2022-09-12T15:22:36.297Z,40.99
2022-09-12T15:25:02.777Z,41.56
2022-09-12T15:27:29.172Z,41.85
2022-09-12T15:29:56.284Z,40.37
2022-09-12T15:32:27.111Z,39.63
2022-09-12T15:34:53.710Z,40.38
2022-09-12T15:37:21.791Z,41.72
2022-09-12T15:39:48.818Z,41.31
2022-09-12T15:42:15.892Z,40.55
2022-09-12T15:44:42.716Z,40.16
2022-09-12T15:47:12.942Z,40.95
2022-09-12T15:49:39.899Z,41.84
2022-09-12T15:52:07.128Z,41.37
2022-09-12T15:54:33.934Z,40.84
2022-09-12T15:57:00.341Z,41.33
2022-09-12T15:59:26.759Z,41.84
2022-09-12T16:01:53.242Z,41.90
2022-09-12T16:04:24.139Z,42.10
2022-09-12T16:06:51.422Z,42.26
2022-09-12T16:09:17.892Z,41.87
2022-09-12T16:11:47.444Z,41.08
2022-09-12T16:14:15.137Z,42.43
2022-09-12T16:16:41.977Z,41.85
2022-09-12T16:19:09.928Z,42.52
2022-09-12T16:21:36.868Z,42.45
2022-09-12T16:24:03.460Z,43.22
2022-09-12T16:26:30.008Z,41.92
2022-09-12T16:28:59.536Z,42.10
2022-09-12T16:31:26.910Z,43.03
2022-09-12T16:33:53.734Z,43.89
2022-09-12T16:36:20.943Z,44.83
2022-09-12T16:38:51.440Z,43.69
2022-09-12T16:41:19.317Z,43.28
2022-09-12T16:43:45.987Z,43.21
2022-09-12T16:46:16.407Z,44.47
2022-09-12T16:48:49.308Z,44.74
2022-09-12T16:51:20.192Z,44.81
2022-09-12T16:53:46.664Z,46.19
2022-09-12T16:56:13.059Z,46.41
2022-09-12T16:58:42.091Z,46.53
2022-09-12T17:01:13.379Z,46.45
2022-09-12T17:03:40.493Z,46.53
2022-09-12T17:06:08.265Z,46.31
2022-09-12T17:08:36.159Z,47.13
2022-09-12T17:11:03.774Z,47.81
2022-09-12T17:13:52.912Z,48.08
2022-09-12T17:16:17.215Z,47.71
2022-09-12T17:18:43.666Z,48.31
2022-09-12T17:21:11.121Z,49.03
2022-09-12T17:23:38.095Z,48.75
2022-09-12T17:26:05.245Z,49.13
2022-09-12T17:28:31.828Z,50.27
2022-09-12T17:30:59.161Z,48.96
2022-09-12T17:33:25.681Z,50.27
2022-09-12T17:35:52.326Z,49.84
2022-09-12T17:38:23.287Z,50.47
2022-09-12T17:40:59.389Z,50.20
2022-09-12T17:43:26.387Z,51.22
2022-09-12T17:45:57.278Z,53.09
2022-09-12T17:48:23.867Z,54.45
2022-09-12T17:50:50.730Z,55.22
2022-09-12T17:53:17.888Z,55.24
2022-09-12T17:55:44.358Z,55.86
2022-09-12T17:58:10.995Z,56.86
2022-09-12T18:00:56.167Z,57.77
2022-09-12T18:03:23.892Z,57.90
2022-09-12T18:05:54.920Z,58.66
2022-09-12T18:08:22.317Z,59.87
2022-09-12T18:10:49.204Z,60.34
2022-09-12T18:13:16.375Z,61.42
2022-09-12T18:15:42.965Z,62.22
2022-09-12T18:18:09.819Z,62.28
2022-09-12T18:20:36.256Z,63.04
2022-09-12T18:23:02.961Z,63.60
2022-09-12T18:25:29.452Z,63.64
2022-09-12T18:27:56.173Z,64.44
2022-09-12T18:30:23.629Z,64.76
2022-09-12T18:32:50.730Z,64.75
2022-09-12T18:35:17.375Z,65.52
2022-09-12T18:37:44.228Z,64.94
2022-09-12T18:40:11.086Z,64.51
2022-09-12T18:42:37.534Z,64.90
2022-09-12T18:45:04.024Z,64.82
2022-09-12T18:47:30.458Z,64.69
2022-09-12T18:49:56.871Z,64.31
2022-09-12T18:52:23.327Z,64.76
2022-09-12T18:54:49.840Z,64.87
2022-09-12T18:57:16.303Z,65.25
2022-09-12T18:59:42.696Z,65.88
2022-09-12T19:02:15.542Z,66.49
2022-09-12T19:04:42.052Z,67.01
2022-09-12T19:07:08.605Z,67.05
2022-09-12T19:09:35.073Z,67.78
2022-09-12T19:12:01.605Z,67.55
2022-09-12T19:14:28.055Z,66.82
2022-09-12T19:16:54.515Z,66.81
2022-09-12T19:19:21.364Z,66.39
2022-09-12T19:21:47.930Z,66.29
2022-09-12T19:24:14.834Z,66.35
2022-09-12T19:26:41.624Z,67.58
2022-09-12T19:29:08.735Z,67.95
2022-09-12T19:31:35.267Z,67.18
2022-09-12T19:34:02.188Z,67.24
2022-09-12T19:36:44.400Z,67.36
2022-09-12T19:39:12.240Z,66.80
2022-09-12T19:41:38.743Z,67.65
2022-09-12T19:44:05.604Z,67.86
2022-09-12T19:46:32.253Z,68.03
2022-09-12T19:48:58.722Z,68.32
2022-09-12T19:51:25.344Z,68.21
2022-09-12T19:53:52.203Z,68.27
2022-09-12T19:56:19.124Z,68.08
2022-09-12T19:58:46.671Z,68.27
2022-09-12T20:01:28.338Z,68.29
2022-09-12T20:03:55.631Z,68.24
2022-09-12T20:06:22.515Z,67.44
2022-09-12T20:08:49.041Z,66.64
2022-09-12T20:11:17.364Z,65.53
2022-09-12T20:13:44.545Z,65.57
2022-09-12T20:16:15.759Z,65.78
2022-09-12T20:18:44.389Z,65.86
2022-09-12T20:21:10.830Z,65.70
2022-09-12T20:23:37.320Z,65.57
2022-09-12T20:26:04.319Z,65.57
2022-09-12T20:28:31.333Z,65.02
2022-09-12T20:31:04.468Z,64.51
2022-09-12T20:33:31.106Z,64.50
2022-09-12T20:36:01.657Z,64.44
2022-09-12T20:38:28.075Z,64.16
2022-09-12T20:40:54.532Z,62.95
2022-09-12T20:43:21.549Z,63.77
2022-09-12T20:45:47.980Z,64.39
2022-09-12T20:48:14.444Z,64.56
2022-09-12T20:50:40.875Z,64.53
2022-09-12T20:53:07.460Z,64.82
2022-09-12T20:55:33.970Z,65.12
2022-09-12T20:58:00.408Z,65.08
2022-09-12T21:00:26.944Z,65.20
2022-09-12T21:02:53.442Z,65.53
2022-09-12T21:05:19.884Z,65.10
2022-09-12T21:07:46.438Z,65.00
2022-09-12T21:10:13.720Z,65.27
2022-09-12T21:12:40.172Z,64.80
2022-09-12T21:15:06.867Z,65.17
2022-09-12T21:17:33.346Z,65.35
2022-09-12T21:19:59.755Z,65.33
2022-09-12T21:22:26.137Z,65.16
2022-09-12T21:24:52.676Z,65.77
2022-09-12T21:27:19.102Z,66.06
2022-09-12T21:29:45.548Z,65.61
2022-09-12T21:32:14.262Z,65.31
2022-09-12T21:34:41.829Z,65.18
2022-09-12T21:37:08.247Z,65.52
2022-09-12T21:39:34.647Z,65.43
2022-09-12T21:42:01.056Z,65.92
2022-09-12T21:44:27.477Z,67.42
2022-09-12T21:46:53.972Z,67.99
2022-09-12T21:49:20.520Z,67.52
2022-09-12T21:51:47.000Z,68.23
2022-09-12T21:54:13.981Z,68.29
2022-09-12T21:56:40.429Z,68.67
2022-09-12T21:59:06.867Z,69.05
2022-09-12T22:01:33.484Z,69.18
2022-09-12T22:03:59.912Z,68.97
2022-09-12T22:06:26.519Z,69.79
2022-09-12T22:08:52.902Z,70.02
2022-09-12T22:11:20.413Z,70.65
2022-09-12T22:13:46.912Z,70.59
2022-09-12T22:16:13.616Z,70.72
2022-09-12T22:18:40.193Z,70.71
2022-09-12T22:21:08.776Z,71.51
2022-09-12T22:23:53.959Z,72.35
2022-09-12T22:26:20.497Z,73.79
2022-09-12T22:28:47.763Z,74.48
2022-09-12T22:31:14.964Z,74.96
2022-09-12T22:33:41.526Z,74.72
2022-09-12T22:36:08.947Z,74.99
2022-09-12T22:38:35.844Z,75.65
2022-09-12T22:41:06.305Z,76.34
2022-09-12T22:43:33.508Z,75.99
2022-09-12T22:46:00.469Z,75.70
2022-09-12T22:48:27.013Z,75.59
2022-09-12T22:50:53.611Z,75.54
2022-09-12T22:53:20.111Z,75.56
2022-09-12T22:55:46.635Z,75.31
2022-09-12T22:58:13.196Z,75.10
2022-09-12T23:00:39.674Z,74.90
2022-09-12T23:03:06.409Z,72.89
2022-09-12T23:05:32.897Z,72.72
2022-09-12T23:07:59.407Z,72.47
2022-09-12T23:10:27.074Z,72.21
2022-09-12T23:25:11.734Z,69.56
2022-09-12T23:27:40.027Z,69.69
2022-09-12T23:30:08.246Z,69.95
2022-09-12T23:32:35.383Z,70.68
2022-09-12T23:35:03.082Z,69.47
2022-09-12T23:37:29.868Z,70.06
2022-09-12T23:39:56.459Z,68.58
2022-09-12T23:42:23.127Z,69.22
2022-09-12T23:44:49.608Z,70.28
2022-09-12T23:47:18.389Z,70.63
2022-09-12T23:49:45.779Z,71.90
2022-09-12T23:52:12.352Z,71.88
2022-09-12T23:54:38.819Z,72.48
2022-09-12T23:57:05.314Z,73.57
2022-09-12T23:59:31.930Z,72.35
